Time;durP1;ratioP1;P1;durP2;ratioP2;P2;SDS_P1;SDS_P2;PMS_P1;PMS_P2;Temp;Humidity;BMP_temperature;BMP_pressure;BME280_temperature;BME280_humidity;BME280_pressure;Samples;Min_cycle;Max_cycle;Signal;HPM_P1;HPM_P2
2022/02/02 00:00:38;;;;;;;15.43;3.53;;;;;;;;;;6221643;22;20453;-83
2022/02/02 00:03:09;;;;;;;24.77;4.38;;;;;;;;;;6218052;22;20026;-83
2022/02/02 00:05:54;;;;;;;23.42;4.28;;;;;;;;;;6218890;22;20018;-83
2022/02/02 00:08:33;;;;;;;19.65;3.65;;;;;;;;;;6221727;22;20078;-83
2022/02/02 00:11:40;;;;;;;18.60;3.92;;;;;;;;;;6220427;22;20073;-84
2022/02/02 00:16:43;;;;;;;23.90;4.57;;;;;;;;;;6242726;22;20024;-83
2022/02/02 00:19:27;;;;;;;21.75;3.78;;;;;;;;;;6248189;22;20019;-83
2022/02/02 00:22:00;;;;;;;27.10;5.05;;;;;;;;;;6221555;22;20020;-83
2022/02/02 00:24:35;;;;;;;20.48;4.72;;;;;;;;;;6243320;22;20535;-83
2022/02/02 00:27:05;;;;;;;21.88;4.15;;;;;;;;;;6219602;22;20045;-83
2022/02/02 00:29:37;;;;;;;22.05;3.55;;;;;;;;;;6244210;22;20094;-83
2022/02/02 00:32:13;;;;;;;25.48;4.32;;;;;;;;;;6217847;22;20020;-83
2022/02/02 00:34:39;;;;;;;21.95;3.38;;;;;;;;;;6219713;22;20031;-84
2022/02/02 00:37:04;;;;;;;20.23;5.10;;;;;;;;;;6217971;22;20558;-83
2022/02/02 00:39:31;;;;;;;16.75;3.38;;;;;;;;;;6216810;22;20030;-83
2022/02/02 00:41:57;;;;;;;27.45;4.03;;;;;;;;;;6216572;22;20073;-83
2022/02/02 00:44:24;;;;;;;30.88;4.50;;;;;;;;;;6216820;22;20020;-83
2022/02/02 00:46:50;;;;;;;24.50;4.28;;;;;;;;;;6216255;22;20125;-83
2022/02/02 00:49:16;;;;;;;20.00;3.17;;;;;;;;;;6216666;22;20023;-83
2022/02/02 00:51:47;;;;;;;20.73;4.13;;;;;;;;;;6217347;22;20091;-83
2022/02/02 00:54:19;;;;;;;19.40;3.78;;;;;;;;;;6216607;22;20028;-83
2022/02/02 00:56:45;;;;;;;22.65;4.30;;;;;;;;;;6242614;22;20015;-83
2022/02/02 00:59:11;;;;;;;20.48;4.25;;;;;;;;;;6242847;22;20527;-83
2022/02/02 01:01:38;;;;;;;20.75;3.50;;;;;;;;;;6216126;22;20094;-83
2022/02/02 01:04:04;;;;;;;25.42;4.65;;;;;;;;;;6241945;22;20019;-83
2022/02/02 01:06:33;;;;;;;22.83;3.75;;;;;;;;;;6216611;22;20088;-83
2022/02/02 01:11:51;;;;;;;19.55;4.00;;;;;;;;;;6243750;22;20008;-83
2022/02/02 01:28:15;;;;;;;22.38;3.90;;;;;;;;;;6256114;22;20137;-83
2022/02/02 01:30:41;;;;;;;29.10;4.32;;;;;;;;;;6240946;22;20466;-83
2022/02/02 01:33:07;;;;;;;17.67;4.15;;;;;;;;;;6240939;22;20020;-83
2022/02/02 01:35:33;;;;;;;26.48;5.15;;;;;;;;;;6242449;22;20066;-83
2022/02/02 01:37:58;;;;;;;22.02;3.60;;;;;;;;;;6216586;22;20082;-83
2022/02/02 01:40:30;;;;;;;24.10;3.83;;;;;;;;;;6215557;22;20044;-83
2022/02/02 01:43:01;;;;;;;21.90;4.82;;;;;;;;;;6217779;22;21428;-83
2022/02/02 01:45:34;;;;;;;24.50;4.18;;;;;;;;;;6218491;22;20019;-83
2022/02/02 01:48:16;;;;;;;26.80;4.22;;;;;;;;;;6218427;22;20517;-83
2022/02/02 01:56:08;;;;;;;23.33;4.63;;;;;;;;;;6245642;22;20035;-83
2022/02/02 01:58:48;;;;;;;26.13;5.60;;;;;;;;;;6216471;22;20082;-83
2022/02/02 02:01:15;;;;;;;24.52;3.95;;;;;;;;;;6218707;22;20033;-83
2022/02/02 02:03:41;;;;;;;16.42;3.45;;;;;;;;;;6215912;22;20016;-83
2022/02/02 02:06:08;;;;;;;16.45;4.03;;;;;;;;;;6215531;22;20102;-83
2022/02/02 02:08:36;;;;;;;22.90;4.93;;;;;;;;;;6216865;22;20039;-83
2022/02/02 02:11:03;;;;;;;20.63;3.22;;;;;;;;;;6241722;22;20070;-83
2022/02/02 02:15:56;;;;;;;19.90;3.78;;;;;;;;;;6241240;22;20024;-83
2022/02/02 02:18:22;;;;;;;27.08;4.55;;;;;;;;;;6216431;22;20080;-83
2022/02/02 02:20:48;;;;;;;21.35;4.20;;;;;;;;;;6241252;22;20023;-83
2022/02/02 02:23:14;;;;;;;18.83;4.05;;;;;;;;;;6215200;22;20130;-84
2022/02/02 02:25:42;;;;;;;21.08;4.72;;;;;;;;;;6216633;22;20384;-83
2022/02/02 02:28:25;;;;;;;26.45;4.07;;;;;;;;;;6216470;22;20038;-83
2022/02/02 02:31:01;;;;;;;22.88;4.72;;;;;;;;;;6245315;22;20023;-83
2022/02/02 02:33:39;;;;;;;21.33;4.28;;;;;;;;;;6218433;22;20486;-83
2022/02/02 02:39:18;;;;;;;22.23;3.55;;;;;;;;;;6245164;22;20027;-83
2022/02/02 02:58:23;;;;;;;20.02;4.20;;;;;;;;;;6245622;22;20073;-83
2022/02/02 03:01:08;;;;;;;23.13;4.90;;;;;;;;;;6245359;22;20488;-83
2022/02/02 03:29:53;;;;;;;28.70;4.80;;;;;;;;;;6247532;22;20373;-83
2022/02/02 03:32:08;;;;;;;30.55;4.95;;;;;;;;;;6246226;22;20271;-83
2022/02/02 03:50:39;;;;;;;32.05;5.32;;;;;;;;;;6270023;22;20049;-83
2022/02/02 04:04:20;;;;;;;27.17;5.65;;;;;;;;;;6246278;22;20018;-83
2022/02/02 04:06:59;;;;;;;32.80;5.25;;;;;;;;;;6219565;22;20538;-83
2022/02/02 04:09:26;;;;;;;31.48;5.15;;;;;;;;;;6219233;22;20026;-83
2022/02/02 04:12:48;;;;;;;41.42;7.05;;;;;;;;;;6216738;22;20074;-83
2022/02/02 04:15:45;;;;;;;28.85;6.32;;;;;;;;;;6230313;22;20364;-83
2022/02/02 04:53:51;;;;;;;29.98;4.70;;;;;;;;;;6245406;22;20559;-85
2022/02/02 04:59:04;;;;;;;22.05;4.30;;;;;;;;;;6244749;22;20019;-85
2022/02/02 05:04:47;;;;;;;24.42;5.30;;;;;;;;;;6268489;22;20049;-85
2022/02/02 05:07:35;;;;;;;31.02;5.22;;;;;;;;;;6249163;22;20024;-84
2022/02/02 05:18:10;;;;;;;26.38;4.93;;;;;;;;;;6241561;22;20023;-85
2022/02/02 05:21:05;;;;;;;26.15;4.13;;;;;;;;;;6222992;22;20073;-85
2022/02/02 05:27:15;;;;;;;29.60;5.10;;;;;;;;;;6242792;22;20019;-84
2022/02/02 05:40:56;;;;;;;30.35;5.50;;;;;;;;;;6246303;22;20016;-85
2022/02/02 05:41:15;;;;;;;35.53;6.47;;;;;;;;;;6246737;22;20092;-85
2022/02/02 05:51:18;;;;;;;29.03;5.63;;;;;;;;;;6243470;22;20027;-84
2022/02/02 05:53:44;;;;;;;33.25;5.47;;;;;;;;;;6224432;22;20304;-83
2022/02/02 05:56:10;;;;;;;25.35;4.93;;;;;;;;;;6220114;22;20026;-83
2022/02/02 05:58:38;;;;;;;31.05;5.00;;;;;;;;;;6221026;22;20016;-83
2022/02/02 06:01:08;;;;;;;29.25;5.50;;;;;;;;;;6243114;22;20019;-84
2022/02/02 06:03:54;;;;;;;21.80;4.25;;;;;;;;;;6245771;22;20530;-83
2022/02/02 06:06:22;;;;;;;26.15;5.07;;;;;;;;;;6214785;22;20047;-84
2022/02/02 06:08:49;;;;;;;32.05;6.20;;;;;;;;;;6239908;22;20011;-83
2022/02/02 06:11:18;;;;;;;27.98;5.22;;;;;;;;;;6238074;22;20369;-84
2022/02/02 06:13:49;;;;;;;32.08;5.38;;;;;;;;;;6212456;22;20020;-83
2022/02/02 06:16:15;;;;;;;30.50;4.57;;;;;;;;;;6214693;22;20046;-84
2022/02/02 06:18:41;;;;;;;22.33;3.35;;;;;;;;;;6239411;22;20022;-84
2022/02/02 06:21:08;;;;;;;19.60;4.22;;;;;;;;;;6238801;22;20016;-83
2022/02/02 06:23:43;;;;;;;32.50;9.18;;;;;;;;;;6239027;22;20416;-84
2022/02/02 06:26:17;;;;;;;22.35;7.57;;;;;;;;;;6214283;22;20049;-84
2022/02/02 06:28:44;;;;;;;23.17;6.25;;;;;;;;;;6212900;22;20024;-84
2022/02/02 06:31:15;;;;;;;22.95;4.93;;;;;;;;;;6212501;22;20025;-83
2022/02/02 06:33:42;;;;;;;15.88;3.20;;;;;;;;;;6213836;22;20020;-83
2022/02/02 06:36:10;;;;;;;16.90;3.38;;;;;;;;;;6215839;22;20470;-84
2022/02/02 06:38:41;;;;;;;21.25;3.72;;;;;;;;;;6214944;22;20031;-84
2022/02/02 06:41:08;;;;;;;15.20;3.05;;;;;;;;;;6216594;22;20073;-84
2022/02/02 06:43:34;;;;;;;21.17;4.22;;;;;;;;;;6215082;22;20087;-84
2022/02/02 06:46:02;;;;;;;19.13;3.33;;;;;;;;;;6216899;22;20091;-85
2022/02/02 06:48:30;;;;;;;13.98;3.35;;;;;;;;;;6216237;22;20195;-84
2022/02/02 06:51:10;;;;;;;20.42;4.25;;;;;;;;;;6216486;22;20038;-84
2022/02/02 06:54:04;;;;;;;23.63;4.10;;;;;;;;;;6243776;22;20457;-84
2022/02/02 06:56:48;;;;;;;15.70;3.17;;;;;;;;;;6241283;22;20030;-84
2022/02/02 07:02:37;;;;;;;16.77;4.43;;;;;;;;;;6136623;23;20434;-83
2022/02/02 07:16:13;;;;;;;21.60;4.30;;;;;;;;;;6242965;22;20019;-83
2022/02/02 07:18:53;;;;;;;26.83;5.60;;;;;;;;;;6219785;22;20069;-84
2022/02/02 07:21:35;;;;;;;21.67;4.78;;;;;;;;;;6219820;22;20015;-84
2022/02/02 07:24:30;;;;;;;27.90;6.60;;;;;;;;;;6218446;22;20534;-84
2022/02/02 07:29:56;;;;;;;17.63;3.53;;;;;;;;;;6237103;22;20090;-83
2022/02/02 07:32:28;;;;;;;27.67;4.60;;;;;;;;;;6237733;22;20216;-84
2022/02/02 07:35:16;;;;;;;21.20;3.50;;;;;;;;;;6214451;22;20023;-84
2022/02/02 07:38:10;;;;;;;16.80;3.70;;;;;;;;;;6215539;22;20197;-84
2022/02/02 07:40:38;;;;;;;24.77;4.70;;;;;;;;;;6216144;22;20028;-84
2022/02/02 07:43:04;;;;;;;19.00;3.28;;;;;;;;;;6239874;22;20469;-84
2022/02/02 07:45:32;;;;;;;26.10;3.95;;;;;;;;;;6239377;22;20023;-83
2022/02/02 07:47:59;;;;;;;20.00;3.97;;;;;;;;;;6208647;22;20408;-83
2022/02/02 07:50:28;;;;;;;27.35;3.90;;;;;;;;;;6207382;22;20027;-84
2022/02/02 07:52:57;;;;;;;23.27;3.78;;;;;;;;;;6236117;22;20012;-84
2022/02/02 07:55:26;;;;;;;23.63;3.58;;;;;;;;;;6241143;22;20093;-84
2022/02/02 07:57:56;;;;;;;18.70;3.95;;;;;;;;;;6217437;22;20026;-84
2022/02/02 08:00:23;;;;;;;20.45;3.55;;;;;;;;;;6216530;22;20027;-84
2022/02/02 08:05:18;;;;;;;20.67;3.67;;;;;;;;;;6241081;22;20019;-84
2022/02/02 08:07:58;;;;;;;15.73;3.17;;;;;;;;;;6210550;22;20082;-85
2022/02/02 08:10:26;;;;;;;16.92;3.92;;;;;;;;;;6217678;22;20023;-84
2022/02/02 08:12:58;;;;;;;16.25;2.92;;;;;;;;;;6215575;22;20020;-83
2022/02/02 08:15:28;;;;;;;20.70;3.55;;;;;;;;;;6217156;22;20027;-84
2022/02/02 08:17:55;;;;;;;15.43;2.92;;;;;;;;;;6217420;22;20024;-84
2022/02/02 08:20:22;;;;;;;16.02;3.88;;;;;;;;;;6216168;22;20026;-83
2022/02/02 08:22:48;;;;;;;22.13;3.42;;;;;;;;;;6216210;22;20056;-83
2022/02/02 08:25:24;;;;;;;22.67;3.85;;;;;;;;;;6216033;22;20200;-84
2022/02/02 08:27:51;;;;;;;18.40;3.95;;;;;;;;;;6216074;22;20093;-84
2022/02/02 08:30:18;;;;;;;14.90;2.70;;;;;;;;;;6213841;22;20035;-84
2022/02/02 08:32:50;;;;;;;15.55;2.60;;;;;;;;;;6241148;22;20361;-84
2022/02/02 08:35:19;;;;;;;15.10;2.95;;;;;;;;;;6215767;22;20020;-83
2022/02/02 08:37:48;;;;;;;15.73;3.22;;;;;;;;;;6268070;22;20094;-84
2022/02/02 08:40:26;;;;;;;13.43;2.30;;;;;;;;;;6215961;22;20032;-84
2022/02/02 08:42:53;;;;;;;12.80;2.47;;;;;;;;;;6219018;22;20041;-84
2022/02/02 08:45:26;;;;;;;17.92;2.20;;;;;;;;;;6215640;22;20019;-84
2022/02/02 08:48:08;;;;;;;15.48;3.22;;;;;;;;;;6218561;22;20507;-85
2022/02/02 08:53:27;;;;;;;16.80;2.13;;;;;;;;;;6241801;22;20047;-84
2022/02/02 08:56:04;;;;;;;10.50;2.30;;;;;;;;;;6268821;22;20023;-84
2022/02/02 08:58:34;;;;;;;14.57;2.47;;;;;;;;;;6217767;22;20061;-84
2022/02/02 09:01:03;;;;;;;16.88;3.25;;;;;;;;;;6241225;22;20045;-84
2022/02/02 09:06:15;;;;;;;12.45;2.55;;;;;;;;;;6268040;22;20048;-84
2022/02/02 09:08:43;;;;;;;14.35;3.30;;;;;;;;;;6216141;22;20399;-84
2022/02/02 09:23:18;;;;;;;10.07;1.92;;;;;;;;;;6243558;22;20487;-84
2022/02/02 09:25:09;;;;;;;8.73;1.83;;;;;;;;;;6247704;22;20027;-84
2022/02/02 09:35:53;;;;;;;13.02;3.15;;;;;;;;;;6244706;22;20019;-83
2022/02/02 09:38:20;;;;;;;10.35;1.85;;;;;;;;;;6215921;22;20023;-83
2022/02/02 09:43:22;;;;;;;7.88;1.58;;;;;;;;;;6239308;22;20023;-84
2022/02/02 09:45:53;;;;;;;10.30;1.50;;;;;;;;;;6213917;22;20022;-84
2022/02/02 09:48:30;;;;;;;9.95;1.67;;;;;;;;;;6241020;22;20098;-84
2022/02/02 09:51:03;;;;;;;12.00;2.60;;;;;;;;;;6218277;22;20049;-84
2022/02/02 09:53:38;;;;;;;14.05;2.70;;;;;;;;;;6242053;22;20039;-84
2022/02/02 10:04:35;;;;;;;13.52;2.30;;;;;;;;;;6242011;22;20020;-84
2022/02/02 10:10:49;;;;;;;7.57;1.55;;;;;;;;;;6243158;22;20073;-84
2022/02/02 10:13:27;;;;;;;10.73;1.55;;;;;;;;;;6245527;22;20498;-85
2022/02/02 10:15:55;;;;;;;12.68;2.17;;;;;;;;;;6216591;22;20019;-84
2022/02/02 10:18:29;;;;;;;11.38;1.85;;;;;;;;;;6239213;22;20019;-84
2022/02/02 10:20:55;;;;;;;9.07;1.58;;;;;;;;;;6214468;22;20371;-85
2022/02/02 10:23:33;;;;;;;9.63;1.60;;;;;;;;;;6212603;22;20031;-84
2022/02/02 10:26:16;;;;;;;7.95;1.40;;;;;;;;;;6237126;22;20024;-85
2022/02/02 10:28:42;;;;;;;7.97;1.55;;;;;;;;;;6235108;22;20392;-85
2022/02/02 10:31:09;;;;;;;8.10;1.45;;;;;;;;;;6239662;22;20024;-83
2022/02/02 10:33:36;;;;;;;14.30;1.38;;;;;;;;;;6238184;22;20024;-84
2022/02/02 10:36:12;;;;;;;11.32;2.05;;;;;;;;;;6213282;22;20020;-84
2022/02/02 10:38:49;;;;;;;8.30;1.60;;;;;;;;;;6239794;22;20102;-84
2022/02/02 10:41:26;;;;;;;8.20;1.30;;;;;;;;;;6240124;22;20099;-84
2022/02/02 10:43:59;;;;;;;9.00;1.63;;;;;;;;;;6240891;22;20012;-85
2022/02/02 10:49:05;;;;;;;5.43;1.83;;;;;;;;;;6240091;22;20016;-84
2022/02/02 10:51:43;;;;;;;13.18;2.33;;;;;;;;;;6222136;22;20461;-84
2022/02/02 10:54:19;;;;;;;11.73;2.05;;;;;;;;;;6219705;22;20057;-83
2022/02/02 10:56:48;;;;;;;8.45;1.83;;;;;;;;;;6219497;22;20042;-84
2022/02/02 11:06:35;;;;;;;8.77;2.10;;;;;;;;;;6239172;22;20015;-83
2022/02/02 11:07:21;;;;;;;12.23;2.40;;;;;;;;;;6243339;22;20069;-84
2022/02/02 11:09:47;;;;;;;9.93;2.33;;;;;;;;;;6211972;22;20012;-84
2022/02/02 11:12:14;;;;;;;10.98;2.33;;;;;;;;;;6238470;22;20027;-85
2022/02/02 11:15:08;;;;;;;15.95;2.83;;;;;;;;;;6212848;22;20368;-83
2022/02/02 11:17:46;;;;;;;8.60;1.77;;;;;;;;;;6223225;22;20086;-84
2022/02/02 11:20:13;;;;;;;13.05;2.45;;;;;;;;;;6236602;22;20329;-83
2022/02/02 11:22:57;;;;;;;8.45;1.85;;;;;;;;;;6240366;22;20019;-84
2022/02/02 11:25:23;;;;;;;10.18;1.95;;;;;;;;;;6215689;22;20030;-84
2022/02/02 11:27:52;;;;;;;9.55;1.98;;;;;;;;;;6269134;22;20024;-83
2022/02/02 11:30:23;;;;;;;16.00;3.63;;;;;;;;;;6218928;22;20028;-84
2022/02/02 11:32:57;;;;;;;14.77;2.42;;;;;;;;;;6241560;22;20472;-84
2022/02/02 11:35:30;;;;;;;14.07;2.35;;;;;;;;;;6240459;22;20044;-84
2022/02/02 11:38:01;;;;;;;9.32;2.03;;;;;;;;;;6240903;22;20011;-84
2022/02/02 11:40:32;;;;;;;11.35;2.45;;;;;;;;;;6213876;22;20020;-84
2022/02/02 11:43:16;;;;;;;16.33;2.13;;;;;;;;;;6241871;22;20015;-85
2022/02/02 11:45:46;;;;;;;13.80;2.55;;;;;;;;;;6245950;22;20520;-85
2022/02/02 11:48:20;;;;;;;15.13;1.95;;;;;;;;;;6240826;22;20030;-84
2022/02/02 11:50:53;;;;;;;10.13;1.90;;;;;;;;;;6216100;22;20441;-84
2022/02/02 11:53:53;;;;;;;11.25;2.05;;;;;;;;;;6242333;22;20346;-84
2022/02/02 11:56:19;;;;;;;6.93;1.90;;;;;;;;;;6240492;22;20058;-84
2022/02/02 11:58:45;;;;;;;10.85;2.20;;;;;;;;;;6216862;22;20427;-84
2022/02/02 12:01:24;;;;;;;14.13;3.10;;;;;;;;;;6215724;22;20027;-84
2022/02/02 12:04:13;;;;;;;8.23;1.88;;;;;;;;;;6217917;22;20065;-84
2022/02/02 12:07:03;;;;;;;8.32;2.35;;;;;;;;;;6218401;22;20025;-85
2022/02/02 12:09:42;;;;;;;8.18;1.90;;;;;;;;;;6245060;22;20090;-84
2022/02/02 12:21:25;;;;;;;11.27;2.20;;;;;;;;;;6246029;22;20294;-85
2022/02/02 12:54:58;;;;;;;6.15;1.35;;;;;;;;;;6243545;22;20023;-85
2022/02/02 12:57:03;;;;;;;2.97;0.55;;;;;;;;;;6242292;22;20016;-85
2022/02/02 13:02:14;;;;;;;5.70;0.90;;;;;;;;;;6240623;22;20019;-85
2022/02/02 13:04:42;;;;;;;17.35;1.60;;;;;;;;;;6212737;22;20039;-84
2022/02/02 13:07:15;;;;;;;2.80;0.50;;;;;;;;;;6212615;22;20591;-85
2022/02/02 13:09:43;;;;;;;8.80;0.98;;;;;;;;;;6212649;22;20519;-84
2022/02/02 13:12:21;;;;;;;4.82;1.00;;;;;;;;;;6212386;22;20481;-85
2022/02/02 13:15:07;;;;;;;5.63;0.80;;;;;;;;;;6264737;22;20019;-84
2022/02/02 13:17:52;;;;;;;2.20;0.65;;;;;;;;;;6242537;22;20028;-84
2022/02/02 13:20:43;;;;;;;10.55;1.80;;;;;;;;;;6239539;22;20526;-83
2022/02/02 13:23:16;;;;;;;5.95;0.95;;;;;;;;;;6240767;22;20130;-84
2022/02/02 13:25:45;;;;;;;6.70;1.38;;;;;;;;;;6215693;22;20073;-84
2022/02/02 13:28:12;;;;;;;2.95;0.60;;;;;;;;;;6215710;22;20027;-84
2022/02/02 13:30:51;;;;;;;2.78;0.77;;;;;;;;;;6214602;22;20540;-84
2022/02/02 13:33:33;;;;;;;4.38;0.70;;;;;;;;;;6217356;22;20449;-85
2022/02/02 13:36:22;;;;;;;1.95;0.60;;;;;;;;;;6242531;22;20412;-84
2022/02/02 13:44:39;;;;;;;4.05;0.80;;;;;;;;;;6243637;22;20099;-85
2022/02/02 13:50:26;;;;;;;4.40;1.27;;;;;;;;;;6242267;22;20026;-84
2022/02/02 13:52:53;;;;;;;5.15;1.08;;;;;;;;;;6243526;22;20015;-85
2022/02/02 13:55:40;;;;;;;4.13;0.60;;;;;;;;;;6240906;22;20024;-85
2022/02/02 14:01:06;;;;;;;6.57;0.95;;;;;;;;;;6264126;22;20394;-84
2022/02/02 14:33:17;;;;;;;2.95;0.95;;;;;;;;;;6242016;22;20078;-84
2022/02/02 14:35:47;;;;;;;2.97;0.55;;;;;;;;;;6212258;22;20095;-84
2022/02/02 14:38:14;;;;;;;3.03;0.65;;;;;;;;;;6213961;22;20389;-84
2022/02/02 14:43:24;;;;;;;1.33;0.38;;;;;;;;;;6238986;22;20023;-86
2022/02/02 14:45:54;;;;;;;1.50;0.70;;;;;;;;;;6213663;22;20015;-84
2022/02/02 14:48:28;;;;;;;1.33;0.50;;;;;;;;;;6214828;22;20034;-84
2022/02/02 14:56:20;;;;;;;3.20;0.93;;;;;;;;;;6237677;22;20016;-84
2022/02/02 15:28:13;;;;;;;3.67;0.70;;;;;;;;;;6242514;22;20015;-83
2022/02/02 15:31:00;;;;;;;3.25;0.77;;;;;;;;;;6243905;22;20038;-82
2022/02/02 15:33:29;;;;;;;3.40;1.17;;;;;;;;;;6220655;22;20048;-82
2022/02/02 15:38:47;;;;;;;2.70;0.77;;;;;;;;;;6202939;22;20019;-83
2022/02/02 15:41:20;;;;;;;6.15;1.73;;;;;;;;;;6239365;22;20089;-84
2022/02/02 15:44:55;;;;;;;3.47;0.95;;;;;;;;;;6214140;22;20135;-84
2022/02/02 15:55:05;;;;;;;4.05;0.73;;;;;;;;;;6244232;22;20030;-83
2022/02/02 15:58:10;;;;;;;4.90;1.05;;;;;;;;;;6241077;22;20077;-83
2022/02/02 16:03:25;;;;;;;9.02;1.92;;;;;;;;;;6248872;22;20030;-83
2022/02/02 16:05:54;;;;;;;6.63;2.03;;;;;;;;;;6216778;22;20046;-83
2022/02/02 16:08:23;;;;;;;7.57;2.20;;;;;;;;;;6218402;22;20058;-83
2022/02/02 16:13:32;;;;;;;5.35;1.30;;;;;;;;;;6242430;22;20027;-83
2022/02/02 16:16:04;;;;;;;12.73;1.70;;;;;;;;;;6242658;22;20046;-83
2022/02/02 16:18:45;;;;;;;11.23;1.88;;;;;;;;;;6216960;22;20043;-83
2022/02/02 16:32:41;;;;;;;9.25;1.75;;;;;;;;;;6245559;22;20137;-83
2022/02/02 16:35:41;;;;;;;6.93;2.03;;;;;;;;;;6245734;22;20016;-83
2022/02/02 16:38:08;;;;;;;4.95;1.23;;;;;;;;;;6249260;22;20024;-83
2022/02/02 16:40:36;;;;;;;5.68;1.38;;;;;;;;;;6216519;22;20047;-83
2022/02/02 16:45:33;;;;;;;10.00;2.40;;;;;;;;;;6241704;22;20023;-83
2022/02/02 16:48:00;;;;;;;8.93;1.70;;;;;;;;;;6239562;22;20360;-83
2022/02/02 16:50:31;;;;;;;6.20;1.98;;;;;;;;;;6214005;22;20015;-83
2022/02/02 16:53:03;;;;;;;9.05;2.22;;;;;;;;;;6215335;22;20042;-84
2022/02/02 16:58:07;;;;;;;7.50;2.35;;;;;;;;;;6239779;22;20031;-84
2022/02/02 17:30:48;;;;;;;7.00;1.98;;;;;;;;;;6244698;22;20030;-84
2022/02/02 17:33:26;;;;;;;12.00;2.45;;;;;;;;;;6241214;22;20223;-84
2022/02/02 17:36:11;;;;;;;12.00;1.92;;;;;;;;;;6217247;22;20020;-85
2022/02/02 17:38:51;;;;;;;8.13;1.92;;;;;;;;;;6219327;22;20794;-84
2022/02/02 17:41:41;;;;;;;14.55;2.00;;;;;;;;;;6243424;22;20248;-84
2022/02/02 17:44:37;;;;;;;6.75;1.65;;;;;;;;;;6245881;22;20026;-84
2022/02/02 17:59:15;;;;;;;8.98;2.40;;;;;;;;;;6245208;22;20273;-84
2022/02/02 18:12:21;;;;;;;13.63;3.20;;;;;;;;;;6245597;22;20047;-83
2022/02/02 18:20:02;;;;;;;14.27;4.50;;;;;;;;;;6243813;22;20384;-83
2022/02/02 18:22:35;;;;;;;14.55;3.80;;;;;;;;;;6266964;22;20023;-83
2022/02/02 18:25:12;;;;;;;13.48;3.30;;;;;;;;;;6241982;22;20114;-83
2022/02/02 18:30:24;;;;;;;8.98;2.55;;;;;;;;;;6240955;22;20051;-84
2022/02/02 18:32:59;;;;;;;11.15;3.03;;;;;;;;;;6241550;22;20055;-84
2022/02/02 18:35:31;;;;;;;16.88;3.40;;;;;;;;;;6217965;22;20016;-84
2022/02/02 18:44:00;;;;;;;15.63;2.97;;;;;;;;;;6242521;22;20427;-82
2022/02/02 18:46:31;;;;;;;12.02;2.80;;;;;;;;;;6245208;22;20035;-83
2022/02/02 18:49:02;;;;;;;7.57;2.45;;;;;;;;;;6218406;22;20023;-84
2022/02/02 18:51:53;;;;;;;8.38;2.28;;;;;;;;;;6226363;22;20322;-84
2022/02/02 18:57:40;;;;;;;10.20;2.22;;;;;;;;;;6163083;22;20028;-83
2022/02/02 19:53:21;;;;;;;11.85;1.92;;;;;;;;;;6246473;22;20245;-84
2022/02/02 19:55:49;;;;;;;6.72;2.08;;;;;;;;;;6247946;22;20437;-82
2022/02/02 20:11:43;;;;;;;9.82;3.08;;;;;;;;;;6236642;22;20460;-85
2022/02/02 20:14:13;;;;;;;6.05;2.67;;;;;;;;;;6240979;22;20023;-84
2022/02/02 20:16:39;;;;;;;8.77;2.67;;;;;;;;;;6240582;22;20027;-83
2022/02/02 20:19:08;;;;;;;8.63;2.47;;;;;;;;;;6238428;22;20175;-82
2022/02/02 20:21:42;;;;;;;13.63;2.28;;;;;;;;;;6217131;22;20026;-82
2022/02/02 20:24:08;;;;;;;12.18;2.97;;;;;;;;;;6219961;22;20106;-82
2022/02/02 20:26:36;;;;;;;8.18;3.03;;;;;;;;;;6217119;22;20078;-82
2022/02/02 20:29:02;;;;;;;9.05;1.85;;;;;;;;;;6217945;22;20413;-82
2022/02/02 20:31:32;;;;;;;5.85;1.50;;;;;;;;;;6217223;22;20022;-82
2022/02/02 20:33:58;;;;;;;7.63;1.60;;;;;;;;;;6217062;22;20027;-82
2022/02/02 20:36:24;;;;;;;10.95;1.52;;;;;;;;;;6216342;22;20016;-83
2022/02/02 20:38:50;;;;;;;7.25;1.73;;;;;;;;;;6217003;22;20016;-82
2022/02/02 20:41:16;;;;;;;9.52;1.45;;;;;;;;;;6216832;22;20339;-82
2022/02/02 20:43:51;;;;;;;5.60;1.40;;;;;;;;;;6216182;22;20114;-82
2022/02/02 21:00:42;;;;;;;8.30;1.55;;;;;;;;;;6244981;22;20069;-83
2022/02/02 21:05:53;;;;;;;9.73;1.85;;;;;;;;;;6267142;22;20111;-82
2022/02/02 21:08:35;;;;;;;4.25;0.88;;;;;;;;;;6220132;22;20410;-81
2022/02/02 21:11:12;;;;;;;4.32;1.15;;;;;;;;;;6221580;22;20023;-82
2022/02/02 21:13:44;;;;;;;8.85;2.03;;;;;;;;;;6218477;22;20454;-82
2022/02/02 21:16:13;;;;;;;8.02;1.70;;;;;;;;;;6219669;22;20353;-82
2022/02/02 21:18:40;;;;;;;7.70;1.92;;;;;;;;;;6218223;22;20016;-81
2022/02/02 21:21:21;;;;;;;9.65;1.90;;;;;;;;;;6243079;22;20040;-82
2022/02/02 21:29:10;;;;;;;7.03;1.70;;;;;;;;;;6244916;22;20039;-81
2022/02/02 21:31:35;;;;;;;8.60;1.95;;;;;;;;;;6216010;22;20027;-82
2022/02/02 21:34:01;;;;;;;7.65;1.85;;;;;;;;;;6216605;22;20023;-83
2022/02/02 21:36:27;;;;;;;6.80;1.70;;;;;;;;;;6241810;22;20028;-82
2022/02/02 21:39:04;;;;;;;10.75;2.40;;;;;;;;;;6217146;22;20342;-82
2022/02/02 21:41:34;;;;;;;7.47;1.60;;;;;;;;;;6218519;22;20361;-82
2022/02/02 21:44:00;;;;;;;7.63;2.03;;;;;;;;;;6239634;22;20015;-82
2022/02/02 21:46:26;;;;;;;6.13;1.55;;;;;;;;;;6214204;22;20331;-82
2022/02/02 21:48:53;;;;;;;10.98;1.60;;;;;;;;;;6214676;22;20015;-82
2022/02/02 21:51:31;;;;;;;9.57;2.30;;;;;;;;;;6239096;22;20441;-84
2022/02/02 21:53:57;;;;;;;12.40;1.65;;;;;;;;;;6215727;22;20024;-83
2022/02/02 21:56:23;;;;;;;14.10;2.53;;;;;;;;;;6212598;22;20016;-83
2022/02/02 21:58:49;;;;;;;4.93;1.45;;;;;;;;;;6212838;22;20050;-83
2022/02/02 22:01:16;;;;;;;14.60;2.05;;;;;;;;;;6213541;22;20117;-83
2022/02/02 22:03:41;;;;;;;8.07;1.42;;;;;;;;;;6212119;22;20015;-83
2022/02/02 22:06:07;;;;;;;10.23;2.17;;;;;;;;;;6213532;22;20321;-83
2022/02/02 22:08:33;;;;;;;10.30;2.65;;;;;;;;;;6212506;22;20591;-83
2022/02/02 22:10:59;;;;;;;9.40;1.75;;;;;;;;;;6212913;22;20042;-83
2022/02/02 22:13:34;;;;;;;14.35;2.88;;;;;;;;;;6237934;22;20023;-83
2022/02/02 22:16:06;;;;;;;;;;;;;;;;;;6215789;22;20034;-83
2022/02/02 22:18:32;;;;;;;18.52;2.92;;;;;;;;;;6239395;22;19911;-83
2022/02/02 22:20:58;;;;;;;16.98;2.78;;;;;;;;;;6212308;22;20019;-83
2022/02/02 22:23:24;;;;;;;10.00;2.50;;;;;;;;;;6237768;22;20016;-83
2022/02/02 22:25:50;;;;;;;11.07;2.08;;;;;;;;;;6241357;22;20020;-83
2022/02/02 22:28:16;;;;;;;8.70;2.17;;;;;;;;;;6219666;22;20029;-84
2022/02/02 22:30:41;;;;;;;14.27;2.10;;;;;;;;;;6214206;22;20043;-84
2022/02/02 22:33:07;;;;;;;17.35;3.63;;;;;;;;;;6213698;22;20024;-84
2022/02/02 22:35:33;;;;;;;13.65;2.95;;;;;;;;;;6213076;22;20024;-83
2022/02/02 22:37:59;;;;;;;13.88;2.65;;;;;;;;;;6239842;22;20016;-83
2022/02/02 22:40:26;;;;;;;11.50;2.35;;;;;;;;;;6212205;22;20024;-83
2022/02/02 22:42:52;;;;;;;7.70;2.30;;;;;;;;;;6212401;22;20070;-83
2022/02/02 22:45:18;;;;;;;9.02;2.50;;;;;;;;;;6212874;22;20027;-83
2022/02/02 22:47:46;;;;;;;13.02;2.22;;;;;;;;;;6212604;22;20069;-83
2022/02/02 22:50:13;;;;;;;10.40;1.83;;;;;;;;;;6212587;22;20086;-83
2022/02/02 22:52:46;;;;;;;9.13;2.20;;;;;;;;;;6212003;22;20281;-83
2022/02/02 22:55:15;;;;;;;14.50;2.08;;;;;;;;;;6215025;22;20027;-83
2022/02/02 22:57:41;;;;;;;8.75;1.98;;;;;;;;;;6214818;22;20023;-83
2022/02/02 23:00:10;;;;;;;9.15;1.98;;;;;;;;;;6214154;22;20621;-83
2022/02/02 23:02:52;;;;;;;11.25;2.20;;;;;;;;;;6213941;22;20041;-83
2022/02/02 23:05:21;;;;;;;11.73;2.67;;;;;;;;;;6217710;22;20032;-83
2022/02/02 23:07:46;;;;;;;14.32;2.28;;;;;;;;;;6214748;22;20483;-83
2022/02/02 23:10:12;;;;;;;10.90;2.00;;;;;;;;;;6215350;22;20019;-83
2022/02/02 23:12:38;;;;;;;8.55;1.75;;;;;;;;;;6214193;22;20402;-83
2022/02/02 23:15:08;;;;;;;14.48;2.20;;;;;;;;;;6239212;22;20020;-83
2022/02/02 23:17:35;;;;;;;17.02;2.72;;;;;;;;;;6215605;22;20451;-83
2022/02/02 23:20:01;;;;;;;11.07;2.17;;;;;;;;;;6214382;22;20453;-83
2022/02/02 23:22:30;;;;;;;12.68;2.25;;;;;;;;;;6239609;22;20028;-83
2022/02/02 23:25:00;;;;;;;12.05;2.08;;;;;;;;;;6216544;22;20020;-83
2022/02/02 23:27:26;;;;;;;14.68;2.25;;;;;;;;;;6217333;22;20023;-83
2022/02/02 23:29:55;;;;;;;17.02;2.95;;;;;;;;;;6216192;22;20338;-83
2022/02/02 23:32:24;;;;;;;10.00;2.53;;;;;;;;;;6241985;22;20026;-83
2022/02/02 23:34:50;;;;;;;13.60;2.55;;;;;;;;;;6216224;22;20019;-83
2022/02/02 23:37:16;;;;;;;16.08;3.50;;;;;;;;;;6242726;22;20031;-83
2022/02/02 23:39:42;;;;;;;15.45;3.22;;;;;;;;;;6216108;22;20019;-83
2022/02/02 23:42:19;;;;;;;14.32;2.88;;;;;;;;;;6215027;22;20015;-83
2022/02/02 23:44:50;;;;;;;9.57;2.22;;;;;;;;;;6242742;22;20069;-83
2022/02/02 23:47:17;;;;;;;12.05;2.05;;;;;;;;;;6215906;22;20085;-83
2022/02/02 23:49:54;;;;;;;12.93;2.13;;;;;;;;;;6216663;22;20640;-83
2022/02/02 23:52:24;;;;;;;15.73;2.22;;;;;;;;;;6218680;22;20038;-83
2022/02/02 23:54:53;;;;;;;10.18;2.22;;;;;;;;;;6215873;22;20011;-83
2022/02/02 23:57:36;;;;;;;11.75;2.42;;;;;;;;;;6215632;22;20012;-83
